Time;durP1;ratioP1;P1;durP2;ratioP2;P2;SDS_P1;SDS_P2;PMS_P1;PMS_P2;Temp;Humidity;BMP_temperature;BMP_pressure;BME280_temperature;BME280_humidity;BME280_pressure;Samples;Min_cycle;Max_cycle;Signal;HPM_P1;HPM_P2
2022/05/06 00:00:21;;;;;;;8.95;4.80;;;;;;;9.97;91.71;97702.38;5065032;28;20515;-68
2022/05/06 00:02:48;;;;;;;7.78;5.05;;;;;;;10.20;92.06;97728.38;5063438;28;20060;-68
2022/05/06 00:05:15;;;;;;;8.00;4.85;;;;;;;10.12;92.29;97721.03;5064739;28;20051;-68
2022/05/06 00:07:42;;;;;;;8.40;4.90;;;;;;;9.73;93.07;97669.22;5064667;28;20431;-67
2022/05/06 00:10:10;;;;;;;7.47;4.43;;;;;;;9.86;92.70;97695.72;5064979;28;20060;-68
2022/05/06 00:12:37;;;;;;;7.50;5.65;;;;;;;9.60;93.82;97659.31;5065268;28;20538;-68
2022/05/06 00:15:06;;;;;;;8.43;4.75;;;;;;;9.91;94.47;97727.84;5063669;28;20098;-67
2022/05/06 00:17:33;;;;;;;6.93;4.50;;;;;;;9.91;93.87;97706.50;5064496;28;20056;-67
2022/05/06 00:20:00;;;;;;;8.23;4.18;;;;;;;9.70;94.70;97697.59;5064770;28;20117;-67
2022/05/06 00:22:27;;;;;;;8.45;4.72;;;;;;;9.18;94.55;97622.06;5063039;28;20049;-67
2022/05/06 00:24:53;;;;;;;7.07;4.55;;;;;;;7.56;93.41;97387.59;5064419;28;20055;-67
2022/05/06 00:27:20;;;;;;;8.05;3.80;;;;;;;9.65;93.13;97719.94;5064689;28;20228;-68
2022/05/06 00:29:47;;;;;;;5.68;4.32;;;;;;;9.58;93.82;97716.16;5064096;28;20086;-67
2022/05/06 00:32:13;;;;;;;9.35;4.72;;;;;;;9.24;93.55;97675.97;5064777;28;20059;-68
2022/05/06 00:34:40;;;;;;;6.68;4.10;;;;;;;9.35;93.02;97726.88;5062851;28;20052;-66
2022/05/06 00:37:07;;;;;;;7.28;4.40;;;;;;;9.20;92.68;97711.78;5062562;28;20055;-66
2022/05/06 00:39:33;;;;;;;7.43;3.80;;;;;;;8.92;92.95;97663.06;5064321;28;20056;-67
2022/05/06 00:42:00;;;;;;;7.60;4.10;;;;;;;9.01;92.86;97691.38;5064263;28;20052;-67
2022/05/06 00:44:27;;;;;;;7.82;4.25;;;;;;;9.35;93.20;97745.41;5024936;28;1134850;-66
2022/05/06 00:46:55;;;;;;;11.23;4.55;;;;;;;9.00;93.42;97698.06;5064871;28;20055;-67
2022/05/06 00:49:22;;;;;;;8.95;4.03;;;;;;;8.92;95.22;97732.94;5063621;28;20049;-67
2022/05/06 00:51:51;;;;;;;6.57;4.20;;;;;;;8.94;94.80;97730.66;5064695;28;20568;-67
2022/05/06 00:54:21;;;;;;;9.38;3.72;;;;;;;9.00;92.22;97723.75;5063997;28;20048;-67
2022/05/06 00:56:48;;;;;;;9.48;4.50;;;;;;;9.01;92.21;97724.53;5064976;28;20048;-66
2022/05/06 00:59:15;;;;;;;6.70;3.63;;;;;;;8.57;93.06;97654.38;5063223;28;20058;-66
2022/05/06 01:01:42;;;;;;;6.38;4.22;;;;;;;8.98;92.26;97719.69;5052815;28;20114;-67
2022/05/06 01:04:10;;;;;;;6.40;3.72;;;;;;;8.86;92.81;97727.97;5044785;28;20511;-67
2022/05/06 01:06:38;;;;;;;7.28;4.15;;;;;;;8.46;92.70;97685.53;5059923;28;20435;-66
2022/05/06 01:09:05;;;;;;;6.07;4.07;;;;;;;8.64;93.87;97720.09;5042853;28;20477;-68
2022/05/06 01:11:33;;;;;;;5.32;3.72;;;;;;;8.56;96.16;97718.22;5042865;28;20490;-68
2022/05/06 01:13:59;;;;;;;6.53;3.95;;;;;;;7.54;97.00;97571.81;5059458;28;20110;-67
2022/05/06 01:16:35;;;;;;;5.10;3.67;;;;;;;8.38;98.80;97700.22;5044304;28;20471;-67
2022/05/06 01:19:03;;;;;;;7.22;4.68;;;;;;;8.50;96.70;97719.59;5044770;28;20049;-67
2022/05/06 01:21:36;;;;;;;7.82;4.70;;;;;;;8.56;94.92;97712.72;5044376;28;20048;-68
2022/05/06 01:24:03;;;;;;;8.48;4.70;;;;;;;8.59;94.42;97706.50;5050380;28;20048;-67
2022/05/06 01:27:11;;;;;;;9.98;5.07;;;;;;;8.61;95.39;97710.56;5062603;28;20048;-68
2022/05/06 01:29:39;;;;;;;9.20;5.43;;;;;;;8.63;96.22;97712.97;5062804;28;20059;-67
2022/05/06 01:32:07;;;;;;;9.70;4.78;;;;;;;8.58;96.49;97711.22;5064693;28;20060;-66
2022/05/06 01:34:38;;;;;;;7.38;4.45;;;;;;;8.66;95.49;97702.03;5063799;28;20055;-67
2022/05/06 01:37:07;;;;;;;7.80;4.63;;;;;;;8.47;94.59;97676.91;5063871;28;20056;-67
2022/05/06 01:39:35;;;;;;;6.88;4.30;;;;;;;8.69;93.71;97697.78;5064017;28;20056;-67
2022/05/06 01:42:05;;;;;;;5.97;4.13;;;;;;;8.75;92.07;97704.69;5063749;28;20550;-67
2022/05/06 01:44:39;;;;;;;8.13;4.07;;;;;;;8.65;92.11;97699.59;5063981;28;20048;-67
2022/05/06 01:47:08;;;;;;;;;;;;;;;8.64;92.38;97698.00;5063411;28;20262;-67
2022/05/06 01:49:38;;;;;;;5.72;3.53;;;;;;;8.56;93.59;97701.66;5063714;28;20003;-67
2022/05/06 01:52:07;;;;;;;7.63;3.80;;;;;;;8.55;92.01;97694.53;5062083;28;20054;-67
2022/05/06 01:54:34;;;;;;;5.13;3.53;;;;;;;6.24;91.73;97365.06;5063602;28;20055;-67
2022/05/06 01:57:01;;;;;;;5.97;3.55;;;;;;;8.40;93.83;97780.75;5064063;28;20068;-67
2022/05/06 01:59:28;;;;;;;11.20;3.47;;;;;;;7.22;93.23;97558.78;5062138;28;20506;-67
2022/05/06 02:01:55;;;;;;;4.75;3.17;;;;;;;7.99;93.15;97665.66;5063896;28;20446;-67
2022/05/06 02:07:07;;;;;;;4.93;2.95;;;;;;;8.00;94.17;97710.63;5063194;28;20052;-67
2022/05/06 02:09:33;;;;;;;3.97;3.25;;;;;;;7.78;94.06;97675.13;5063797;28;20056;-67
2022/05/06 02:12:01;;;;;;;8.07;4.68;;;;;;;7.40;95.59;97637.44;5063433;28;20052;-66
2022/05/06 02:14:28;;;;;;;7.13;3.78;;;;;;;7.91;94.41;97685.03;5062273;28;20059;-66
2022/05/06 02:16:54;;;;;;;7.25;3.47;;;;;;;7.76;93.63;97674.63;5063563;28;20052;-67
2022/05/06 02:19:21;;;;;;;12.55;3.95;;;;;;;7.80;95.68;97694.88;5063735;28;20051;-67
2022/05/06 02:21:48;;;;;;;6.35;3.70;;;;;;;7.86;95.05;97699.03;5063794;28;20056;-67
2022/05/06 02:24:15;;;;;;;4.53;3.28;;;;;;;7.18;94.21;97587.34;5063301;28;20064;-67
2022/05/06 02:26:42;;;;;;;6.82;3.20;;;;;;;7.68;94.41;97660.56;5062301;28;20056;-67
2022/05/06 02:29:08;;;;;;;4.78;3.20;;;;;;;7.49;93.18;97629.13;5063553;28;20137;-67
2022/05/06 02:34:20;;;;;;;6.97;4.05;;;;;;;7.95;90.99;97691.53;5063149;28;20510;-67
2022/05/06 02:36:47;;;;;;;6.28;3.17;;;;;;;7.83;92.79;97692.25;5063171;28;20048;-66
2022/05/06 02:39:14;;;;;;;7.10;4.28;;;;;;;7.83;94.42;97683.16;5064070;28;20052;-67
2022/05/06 02:41:41;;;;;;;6.82;4.13;;;;;;;7.88;92.39;97682.97;5063510;28;20053;-67
2022/05/06 02:44:08;;;;;;;7.50;4.00;;;;;;;7.87;92.23;97684.13;5061689;28;20147;-67
2022/05/06 02:46:35;;;;;;;8.77;3.95;;;;;;;7.86;91.90;97699.03;5063143;28;20412;-67
2022/05/06 02:49:03;;;;;;;6.60;3.70;;;;;;;7.85;91.57;97686.41;5061835;28;20055;-67
2022/05/06 02:51:29;;;;;;;4.75;3.03;;;;;;;7.82;92.43;97690.66;5063277;28;20052;-67
2022/05/06 02:53:57;;;;;;;7.97;3.40;;;;;;;7.54;92.45;97649.00;5063417;28;20447;-67
2022/05/06 02:56:24;;;;;;;10.27;3.22;;;;;;;7.81;93.42;97691.00;5063128;28;20514;-66
2022/05/06 02:58:51;;;;;;;6.30;3.17;;;;;;;6.93;92.14;97550.59;5063960;28;20426;-66
2022/05/06 03:01:18;;;;;;;4.60;3.13;;;;;;;7.76;93.37;97693.94;5063363;28;20079;-67
2022/05/06 03:03:45;;;;;;;5.25;3.25;;;;;;;7.36;94.79;97647.53;5063051;28;20053;-66
2022/05/06 03:06:12;;;;;;;5.72;3.38;;;;;;;7.39;92.80;97652.38;5063398;28;20517;-67
2022/05/06 03:08:38;;;;;;;5.70;3.38;;;;;;;7.48;93.56;97663.31;5061424;28;20466;-66
2022/05/06 03:11:05;;;;;;;6.75;3.40;;;;;;;7.71;93.26;97704.00;5062256;28;20064;-67
2022/05/06 03:13:32;;;;;;;4.97;3.13;;;;;;;7.72;93.04;97705.66;5063111;28;20048;-66
2022/05/06 03:15:58;;;;;;;5.35;3.72;;;;;;;7.76;93.14;97705.78;5062725;28;20573;-66
2022/05/06 03:18:26;;;;;;;5.10;3.38;;;;;;;7.86;92.29;97710.06;5063005;28;20056;-68
2022/05/06 03:20:52;;;;;;;5.75;3.42;;;;;;;7.70;91.53;97679.53;5066091;28;20083;-67
2022/05/06 03:23:19;;;;;;;5.88;3.13;;;;;;;7.81;91.22;97724.09;5066440;28;20060;-67
2022/05/06 03:25:46;;;;;;;4.65;2.92;;;;;;;7.81;90.41;97702.81;5066225;28;20048;-66
2022/05/06 03:28:12;;;;;;;5.90;3.40;;;;;;;7.58;90.69;97672.03;5065372;28;20389;-67
2022/05/06 03:30:45;;;;;;;15.00;6.90;;;;;;;7.58;91.40;97677.53;5066737;28;20048;-66
2022/05/06 03:33:16;;;;;;;34.80;12.90;;;;;;;7.68;90.71;97666.09;5066513;28;20056;-66
2022/05/06 03:35:44;;;;;;;18.55;6.95;;;;;;;7.80;91.93;97723.25;5066035;28;20515;-66
2022/05/06 03:38:10;;;;;;;17.65;7.25;;;;;;;7.24;92.05;97597.06;5065577;28;20060;-66
2022/05/06 03:40:37;;;;;;;16.38;6.68;;;;;;;8.26;89.36;97725.84;5065773;28;20506;-66
2022/05/06 03:43:04;;;;;;;13.00;6.75;;;;;;;7.86;88.04;97649.38;5064624;28;20151;-67
2022/05/06 03:45:31;;;;;;;31.45;12.88;;;;;;;8.40;89.21;97726.34;5064411;28;20057;-67
2022/05/06 03:47:59;;;;;;;21.77;10.00;;;;;;;8.30;88.26;97679.06;5065835;28;20516;-68
2022/05/06 03:53:12;;;;;;;7.13;3.90;;;;;;;8.81;87.73;97726.25;5066040;28;20515;-67
2022/05/06 03:55:39;;;;;;;11.93;4.00;;;;;;;8.92;86.81;97734.88;5065747;28;20420;-68
2022/05/06 03:58:05;;;;;;;5.63;3.85;;;;;;;9.16;85.87;97732.16;5065799;28;20056;-67
2022/05/06 04:00:32;;;;;;;9.15;4.88;;;;;;;9.03;84.95;97694.59;5065694;28;20049;-67
2022/05/06 04:02:59;;;;;;;7.97;4.30;;;;;;;9.53;83.92;97736.53;5065948;28;20068;-67
2022/05/06 04:05:33;;;;;;;6.55;4.10;;;;;;;9.73;82.54;97735.63;5066116;28;20496;-67
2022/05/06 04:08:00;;;;;;;4.57;3.55;;;;;;;9.89;81.90;97733.75;5065901;28;20053;-67
2022/05/06 04:10:28;;;;;;;6.03;3.83;;;;;;;10.12;80.36;97737.63;5066346;28;20078;-66
2022/05/06 04:12:54;;;;;;;4.85;3.17;;;;;;;10.28;79.44;97724.66;5065638;28;20057;-66
2022/05/06 04:15:21;;;;;;;6.72;4.43;;;;;;;10.51;79.38;97717.41;5049173;28;20052;-67
2022/05/06 04:17:48;;;;;;;8.27;4.05;;;;;;;10.69;77.47;97718.69;5045517;28;20650;-67
2022/05/06 04:25:45;;;;;;;6.93;3.75;;;;;;;11.03;74.87;97694.25;5065149;28;20052;-69
2022/05/06 04:28:11;;;;;;;7.85;3.92;;;;;;;11.36;74.69;97709.38;5065417;28;20509;-67
2022/05/06 04:30:38;;;;;;;7.75;3.60;;;;;;;11.42;72.87;97693.22;5064618;28;20133;-68
2022/05/06 04:33:05;;;;;;;8.43;4.10;;;;;;;11.60;71.78;97714.69;5065552;28;20059;-67
2022/05/06 04:35:33;;;;;;;5.22;3.70;;;;;;;11.80;72.18;97724.72;5065209;28;20056;-67
2022/05/06 04:37:59;;;;;;;6.72;4.63;;;;;;;11.64;71.77;97693.41;5063754;28;20062;-67
2022/05/06 04:40:26;;;;;;;9.13;3.58;;;;;;;12.22;71.15;97730.41;5064006;28;20056;-67
2022/05/06 04:42:53;;;;;;;7.10;4.00;;;;;;;12.50;69.63;97731.00;5065215;28;20049;-67
2022/05/06 04:45:19;;;;;;;9.57;5.82;;;;;;;10.66;69.14;97409.13;5065112;28;20121;-68
2022/05/06 04:47:46;;;;;;;10.73;5.20;;;;;;;12.03;68.45;97613.75;5058126;28;20051;-66
2022/05/06 04:50:13;;;;;;;6.82;4.88;;;;;;;12.03;69.10;97594.31;5065310;28;20056;-67
2022/05/06 04:52:39;;;;;;;9.77;6.55;;;;;;;12.73;67.87;97695.72;5064459;28;20064;-68
2022/05/06 04:55:07;;;;;;;6.53;4.63;;;;;;;13.25;67.15;97723.72;5065305;28;20048;-67
2022/05/06 04:57:33;;;;;;;4.95;4.13;;;;;;;12.92;67.42;97637.28;5063647;28;20071;-67
2022/05/06 05:00:01;;;;;;;9.75;4.45;;;;;;;13.64;65.36;97686.19;5065456;28;20044;-67
2022/05/06 05:02:28;;;;;;;6.45;4.80;;;;;;;13.97;65.13;97726.47;5064490;28;20068;-67
2022/05/06 05:04:58;;;;;;;10.88;5.55;;;;;;;13.85;65.47;97723.91;5063162;28;20511;-67
2022/05/06 05:07:25;;;;;;;7.32;5.43;;;;;;;13.87;65.52;97704.84;5064294;28;20102;-68
2022/05/06 05:09:52;;;;;;;7.28;4.53;;;;;;;14.25;64.70;97727.72;5058261;28;20060;-68
2022/05/06 05:12:20;;;;;;;6.68;4.20;;;;;;;14.39;64.69;97727.09;5075935;28;20594;-67
2022/05/06 05:14:47;;;;;;;8.55;4.72;;;;;;;14.51;64.04;97735.22;5064907;28;20098;-68
2022/05/06 05:17:13;;;;;;;9.63;4.78;;;;;;;14.49;64.57;97726.44;5063518;28;20427;-67
2022/05/06 05:19:40;;;;;;;5.22;4.28;;;;;;;14.57;64.26;97711.41;5062630;28;20635;-68
2022/05/06 05:22:07;;;;;;;7.10;5.18;;;;;;;14.18;63.28;97626.47;5062622;28;20056;-67
2022/05/06 05:24:34;;;;;;;11.30;4.72;;;;;;;14.67;63.13;97691.19;5063708;28;20529;-67
2022/05/06 05:27:00;;;;;;;6.00;4.43;;;;;;;15.06;62.82;97731.50;5064352;28;20356;-68
2022/05/06 05:29:28;;;;;;;6.13;4.68;;;;;;;14.72;62.38;97660.97;5063929;28;20056;-68
2022/05/06 05:31:56;;;;;;;9.40;5.15;;;;;;;15.05;62.19;97704.75;5062817;28;20071;-68
2022/05/06 05:34:22;;;;;;;5.72;5.05;;;;;;;15.55;59.50;97723.63;5064420;28;20064;-68
2022/05/06 05:36:49;;;;;;;7.20;5.03;;;;;;;15.73;58.72;97716.16;5063592;28;20114;-66
2022/05/06 05:39:16;;;;;;;10.73;6.07;;;;;;;15.95;58.15;97722.72;5064367;28;20542;-68
2022/05/06 05:41:43;;;;;;;6.38;5.22;;;;;;;15.76;57.60;97712.59;5062183;28;20049;-68
2022/05/06 05:49:41;;;;;;;9.05;5.03;;;;;;;16.25;57.69;97712.09;5043747;28;20079;-68
2022/05/06 05:52:07;;;;;;;5.93;4.85;;;;;;;16.39;57.18;97707.41;5042219;28;20431;-68
2022/05/06 05:54:34;;;;;;;10.43;5.00;;;;;;;16.21;57.43;97686.13;5043619;28;20146;-66
2022/05/06 05:57:01;;;;;;;8.48;5.82;;;;;;;16.62;57.33;97723.91;5043759;28;20053;-68
2022/05/06 05:59:28;;;;;;;13.63;7.13;;;;;;;16.84;56.93;97716.41;5043297;28;20052;-67
2022/05/06 06:01:55;;;;;;;9.23;5.43;;;;;;;16.09;56.47;97583.06;5043917;28;20427;-68
2022/05/06 06:04:22;;;;;;;10.80;5.03;;;;;;;16.96;55.55;97718.84;5044299;28;20443;-67
2022/05/06 06:06:49;;;;;;;8.68;6.22;;;;;;;16.70;54.61;97658.41;5058448;28;20064;-67
2022/05/06 06:09:17;;;;;;;7.60;4.82;;;;;;;17.22;54.25;97713.72;5048084;28;20044;-65
2022/05/06 06:11:44;;;;;;;7.28;4.90;;;;;;;17.46;53.86;97724.19;5071608;28;20053;-66
2022/05/06 06:14:11;;;;;;;7.93;5.20;;;;;;;17.79;53.70;97717.38;5045221;28;20146;-66
2022/05/06 06:16:38;;;;;;;4.97;4.43;;;;;;;17.66;52.29;97685.34;5050297;28;20047;-56
2022/05/06 06:19:05;;;;;;;6.50;4.90;;;;;;;18.23;51.20;97726.13;5051557;28;20577;-62
2022/05/06 06:21:32;;;;;;;6.20;4.60;;;;;;;18.12;50.98;97680.47;5054437;28;20048;-63
2022/05/06 06:23:59;;;;;;;6.50;4.53;;;;;;;17.43;52.61;97724.94;5051959;28;20511;-66
2022/05/06 06:26:25;;;;;;;7.13;5.38;;;;;;;17.75;52.23;97727.81;5058784;28;20048;-61
2022/05/06 06:28:52;;;;;;;9.65;4.82;;;;;;;17.68;52.06;97723.00;5050712;28;20091;-62
2022/05/06 06:31:19;;;;;;;5.90;4.68;;;;;;;17.95;51.74;97690.53;5050759;28;20056;-60
2022/05/06 06:33:45;;;;;;;5.28;4.35;;;;;;;17.70;53.25;97714.97;5054519;28;20041;-56
2022/05/06 06:36:13;;;;;;;9.23;4.40;;;;;;;17.02;54.50;97666.88;5046960;28;20507;-64
2022/05/06 06:38:40;;;;;;;7.60;5.03;;;;;;;18.05;52.35;97719.78;5059203;28;20060;-63
2022/05/06 06:41:07;;;;;;;6.63;5.20;;;;;;;18.48;51.53;97696.03;5046160;28;20469;-57
2022/05/06 06:43:39;;;;;;;8.82;5.60;;;;;;;18.48;51.39;97710.06;5050846;28;20061;-59
2022/05/06 06:46:05;;;;;;;13.50;5.03;;;;;;;18.19;52.27;97674.88;5051981;28;20268;-57
2022/05/06 06:48:33;;;;;;;10.95;4.82;;;;;;;18.02;52.05;97633.63;5054490;28;20052;-59
2022/05/06 06:51:00;;;;;;;7.03;4.80;;;;;;;18.47;50.54;97601.03;5046952;28;20049;-66
2022/05/06 06:53:27;;;;;;;8.43;5.25;;;;;;;19.24;50.68;97702.47;5056910;28;20049;-60
2022/05/06 06:55:55;;;;;;;8.68;5.72;;;;;;;19.31;50.39;97691.22;5050730;28;20057;-62
2022/05/06 06:58:22;;;;;;;7.95;6.25;;;;;;;19.07;49.61;97635.97;5050911;28;20049;-65
2022/05/06 07:00:49;;;;;;;6.10;5.47;;;;;;;19.69;49.84;97700.56;5049771;28;20070;-63
2022/05/06 07:03:16;;;;;;;7.18;4.88;;;;;;;19.15;49.42;97682.47;5052290;28;20523;-72
2022/05/06 07:14:00;;;;;;;11.98;6.10;;;;;;;20.01;47.43;97689.03;5056111;28;20445;-58
2022/05/06 07:16:27;;;;;;;6.95;4.95;;;;;;;19.38;47.56;97656.63;5049355;28;20051;-65
2022/05/06 07:18:54;;;;;;;6.05;4.82;;;;;;;18.79;48.77;97629.75;5050813;28;20375;-57
2022/05/06 07:21:21;;;;;;;4.97;4.57;;;;;;;19.49;47.58;97694.69;5061995;28;20128;-66
2022/05/06 07:23:48;;;;;;;7.07;4.93;;;;;;;19.65;46.78;97699.78;5051263;28;20451;-57
2022/05/06 07:26:14;;;;;;;6.32;5.28;;;;;;;19.88;46.74;97694.38;5056980;28;20551;-58
2022/05/06 07:28:41;;;;;;;5.80;5.00;;;;;;;19.58;48.47;97695.03;5057115;28;20431;-59
2022/05/06 07:31:07;;;;;;;9.30;4.63;;;;;;;19.23;49.94;97700.88;5049639;28;20406;-65
2022/05/06 07:33:34;;;;;;;4.85;4.40;;;;;;;19.78;48.88;97692.44;5060498;28;20088;-57
2022/05/06 07:36:01;;;;;;;5.78;4.70;;;;;;;19.98;48.20;97685.03;5055690;28;20055;-69
2022/05/06 07:38:28;;;;;;;4.93;4.45;;;;;;;19.94;46.57;97632.84;5057863;28;20435;-57
2022/05/06 07:40:54;;;;;;;6.95;4.85;;;;;;;20.36;46.01;97660.56;5049984;28;20048;-58
2022/05/06 07:43:21;;;;;;;5.20;4.38;;;;;;;20.81;46.12;97667.63;5055377;28;20049;-68
2022/05/06 07:45:51;;;;;;;8.38;5.22;;;;;;;20.88;45.82;97659.09;5053231;28;20040;-56
2022/05/06 07:48:18;;;;;;;5.32;4.80;;;;;;;20.63;46.23;97650.97;5056579;28;20041;-60
2022/05/06 07:50:45;;;;;;;6.07;5.00;;;;;;;21.25;45.51;97689.19;5051581;28;20060;-57
2022/05/06 07:53:15;;;;;;;5.65;5.05;;;;;;;21.54;45.05;97688.34;5056938;28;20529;-58
2022/05/06 07:55:48;;;;;;;7.68;5.88;;;;;;;20.76;45.75;97645.56;5051852;28;20129;-61
2022/05/06 07:58:14;;;;;;;6.43;5.32;;;;;;;21.52;44.54;97696.41;5056465;28;20052;-58
2022/05/06 08:00:42;;;;;;;5.82;4.50;;;;;;;21.88;44.08;97694.66;5055938;28;20049;-64
2022/05/06 08:05:57;;;;;;;5.05;4.15;;;;;;;20.08;45.07;97551.13;5060168;28;20057;-68
2022/05/06 08:08:25;;;;;;;4.82;4.45;;;;;;;21.27;43.57;97690.38;5053572;28;20052;-64
2022/05/06 08:10:55;;;;;;;6.03;5.05;;;;;;;20.67;44.24;97687.53;5050287;28;20044;-65
2022/05/06 08:13:22;;;;;;;8.65;5.00;;;;;;;20.08;44.85;97683.31;5062451;28;20057;-65
2022/05/06 08:15:52;;;;;;;4.93;4.53;;;;;;;19.36;43.65;97426.66;5065339;28;20045;-66
2022/05/06 08:18:19;;;;;;;4.63;4.15;;;;;;;21.51;42.29;97680.75;5064556;28;20060;-67
2022/05/06 08:20:47;;;;;;;5.40;4.35;;;;;;;22.01;41.62;97687.16;5064559;28;20481;-66
2022/05/06 08:23:13;;;;;;;7.47;6.90;;;;;;;;;;5065179;28;20061;-64
2022/05/06 08:25:41;;;;;;;5.88;4.95;;;;;;;22.70;40.33;97660.06;5064914;28;20133;-65
2022/05/06 08:28:09;;;;;;;6.35;5.07;;;;;;;22.31;38.78;97537.41;5065181;28;20052;-65
2022/05/06 08:30:37;;;;;;;6.80;5.00;;;;;;;23.49;38.98;97681.34;5063711;28;20060;-64
2022/05/06 08:33:04;;;;;;;8.45;6.20;;;;;;;23.68;36.06;97680.44;5063814;28;20060;-65
2022/05/06 08:35:31;;;;;;;8.02;5.80;;;;;;;23.95;35.83;97666.81;5064931;28;20130;-66
2022/05/06 08:37:58;;;;;;;6.35;5.65;;;;;;;24.55;35.59;97660.34;5065090;28;20052;-66
2022/05/06 08:40:26;;;;;;;5.60;5.20;;;;;;;23.83;35.07;97534.53;5064459;28;20048;-64
2022/05/06 08:42:53;;;;;;;5.90;5.40;;;;;;;23.18;38.41;97669.47;5065378;28;20052;-66
2022/05/06 08:50:57;;;;;;;5.03;4.53;;;;;;;21.65;41.05;97663.59;5050269;28;20135;-65
2022/05/06 08:53:28;;;;;;;6.88;4.90;;;;;;;22.32;40.54;97662.38;5044759;28;20057;-65
2022/05/06 08:55:57;;;;;;;5.95;5.38;;;;;;;22.85;38.73;97652.88;5043712;28;20053;-66
2022/05/06 08:58:24;;;;;;;14.55;5.53;;;;;;;21.46;38.03;97526.16;5044513;28;20512;-65
2022/05/06 09:01:10;;;;;;;5.97;4.88;;;;;;;21.46;39.27;97514.06;5044313;28;20052;-66
2022/05/06 09:03:44;;;;;;;7.07;4.57;;;;;;;21.43;37.16;97346.59;5044522;28;20454;-66
2022/05/06 09:06:23;;;;;;;6.63;5.03;;;;;;;24.07;36.18;97654.81;5042878;28;20088;-66
2022/05/06 09:08:51;;;;;;;6.15;5.65;;;;;;;24.45;35.74;97650.13;5044497;28;20244;-65
2022/05/06 09:14:06;;;;;;;6.03;5.53;;;;;;;23.87;34.74;97648.41;5044708;28;20063;-64
2022/05/06 09:16:44;;;;;;;5.82;5.32;;;;;;;23.99;34.73;97610.16;5043956;28;20063;-65
2022/05/06 09:19:25;;;;;;;5.38;4.85;;;;;;;24.07;34.03;97645.53;5035878;28;20079;-67
2022/05/06 09:22:17;;;;;;;5.65;5.00;;;;;;;24.26;33.15;97602.94;5042859;28;20136;-64
2022/05/06 09:24:50;;;;;;;5.65;5.25;;;;;;;24.80;32.81;97625.66;5044896;28;20052;-66
2022/05/06 09:27:19;;;;;;;5.73;5.27;;;;;;;25.37;32.04;97638.91;5044628;28;20067;-65
2022/05/06 09:29:47;;;;;;;5.80;5.07;;;;;;;25.18;31.57;97613.13;5043081;28;20802;-66
2022/05/06 09:32:22;;;;;;;5.55;5.15;;;;;;;24.97;33.44;97630.00;5042756;28;20067;-65
2022/05/06 09:34:54;;;;;;;4.97;4.57;;;;;;;24.12;34.45;97569.34;5044360;28;20052;-65
2022/05/06 09:37:29;;;;;;;5.65;5.15;;;;;;;23.68;36.96;97627.47;5042784;28;20084;-65
2022/05/06 09:40:31;;;;;;;10.75;7.22;;;;;;;24.32;35.08;97629.44;5044648;28;20099;-65
2022/05/06 09:42:59;;;;;;;5.60;5.20;;;;;;;23.93;35.84;97525.75;5044250;28;20064;-64
2022/05/06 09:45:39;;;;;;;6.95;5.45;;;;;;;24.71;33.75;97634.81;5043478;28;20055;-65
2022/05/06 09:48:09;;;;;;;6.35;5.85;;;;;;;24.27;34.86;97632.81;5043928;28;20056;-65
2022/05/06 09:50:38;;;;;;;5.97;5.10;;;;;;;24.35;34.65;97622.91;5043451;28;20516;-64
2022/05/06 09:53:08;;;;;;;6.78;5.18;;;;;;;23.98;34.41;97569.72;5042441;28;20052;-64
2022/05/06 09:55:37;;;;;;;5.65;5.15;;;;;;;21.89;35.54;97419.75;5044093;28;20072;-64
2022/05/06 09:58:05;;;;;;;5.68;5.10;;;;;;;22.99;34.04;97632.75;5044119;28;20059;-65
2022/05/06 10:00:36;;;;;;;10.13;6.22;;;;;;;22.65;35.98;97621.03;5042054;28;20049;-66
2022/05/06 10:03:03;;;;;;;6.55;4.72;;;;;;;23.04;35.13;97493.75;5043146;28;20044;-65
2022/05/06 10:05:32;;;;;;;5.05;4.63;;;;;;;23.04;33.49;97618.94;5042611;28;20511;-64
2022/05/06 10:08:05;;;;;;;4.90;4.50;;;;;;;23.84;32.90;97610.50;5043732;28;20061;-66
2022/05/06 10:10:44;;;;;;;5.07;4.70;;;;;;;24.48;31.44;97603.09;5041536;28;20064;-66
2022/05/06 10:13:20;;;;;;;4.80;4.50;;;;;;;24.71;30.32;97561.16;5042623;28;20068;-66
2022/05/06 10:15:52;;;;;;;6.03;4.90;;;;;;;25.04;30.61;97561.72;5041987;28;20447;-66
2022/05/06 10:18:36;;;;;;;6.03;5.40;;;;;;;25.42;31.10;97592.97;5043388;28;20088;-66
2022/05/06 10:21:07;;;;;;;5.55;5.15;;;;;;;25.85;30.75;97587.41;5042038;28;20057;-66
2022/05/06 10:23:50;;;;;;;10.73;7.07;;;;;;;25.94;30.33;97588.31;5042656;28;20052;-65
2022/05/06 10:26:42;;;;;;;9.80;8.00;;;;;;;25.74;31.53;97587.00;5042100;28;20057;-66
2022/05/06 10:34:57;;;;;;;5.55;5.15;;;;;;;26.04;29.99;97586.38;5066050;28;20056;-66
2022/05/06 10:37:34;;;;;;;;;;;;;;;24.11;31.16;97584.72;5065786;28;20145;-64
2022/05/06 10:40:23;;;;;;;6.28;5.78;;;;;;;24.04;31.33;97584.94;5067223;28;20436;-65
2022/05/06 10:42:51;;;;;;;6.72;5.07;;;;;;;24.38;31.07;97559.69;5067390;28;20052;-65
2022/05/06 10:45:32;;;;;;;8.18;5.68;;;;;;;24.65;31.55;97571.41;5067122;28;20063;-67
2022/05/06 10:48:00;;;;;;;6.32;5.82;;;;;;;25.34;30.69;97572.53;5066094;28;20106;-65
2022/05/06 10:50:38;;;;;;;6.72;6.22;;;;;;;25.78;30.18;97604.72;5067593;28;20064;-66
2022/05/06 10:53:05;;;;;;;6.28;5.78;;;;;;;25.64;29.47;97531.41;5067330;28;20056;-67
2022/05/06 10:55:32;;;;;;;6.35;5.75;;;;;;;26.06;29.70;97558.31;5067446;28;20053;-66
2022/05/06 10:58:01;;;;;;;5.93;5.05;;;;;;;24.51;29.91;97325.38;5067153;28;20062;-66
2022/05/06 11:00:30;;;;;;;9.25;5.63;;;;;;;26.37;29.50;97554.31;5067686;28;20061;-65
2022/05/06 11:02:58;;;;;;;6.97;6.47;;;;;;;26.36;29.30;97541.38;5067375;28;20056;-66
2022/05/06 11:05:29;;;;;;;6.05;5.55;;;;;;;26.30;29.74;97548.09;5065573;28;20044;-66
2022/05/06 11:07:59;;;;;;;10.65;7.43;;;;;;;26.29;29.41;97475.47;5066298;28;20084;-66
2022/05/06 11:10:30;;;;;;;6.53;5.97;;;;;;;26.81;29.23;97540.84;5066562;28;20051;-66
2022/05/06 11:13:18;;;;;;;6.10;5.28;;;;;;;24.48;29.67;97385.78;5066225;28;20530;-65
2022/05/06 11:15:45;;;;;;;5.90;5.40;;;;;;;25.70;29.28;97557.94;5066512;28;20128;-66
2022/05/06 11:18:12;;;;;;;6.15;5.75;;;;;;;26.11;28.50;97509.44;5066310;28;20048;-65
2022/05/06 11:20:39;;;;;;;6.63;5.50;;;;;;;26.49;28.77;97535.59;5066632;28;20075;-64
2022/05/06 11:23:15;;;;;;;7.22;5.53;;;;;;;26.74;27.88;97524.09;5064920;28;20494;-66
2022/05/06 11:25:47;;;;;;;8.50;5.75;;;;;;;26.34;29.01;97529.66;5066870;28;20064;-65
2022/05/06 11:28:16;;;;;;;6.25;5.75;;;;;;;26.59;29.27;97523.81;5066040;28;20044;-65
2022/05/06 11:30:45;;;;;;;6.90;5.97;;;;;;;26.31;30.37;97526.94;5066375;28;20057;-66
2022/05/06 11:33:27;;;;;;;6.85;6.22;;;;;;;26.64;28.90;97525.28;5046341;28;20053;-66
2022/05/06 11:36:03;;;;;;;6.43;5.82;;;;;;;26.47;29.01;97523.91;5046167;28;20053;-65
2022/05/06 11:38:36;;;;;;;7.95;5.38;;;;;;;26.38;29.20;97526.69;5044316;28;20095;-66
2022/05/06 11:41:10;;;;;;;5.97;5.55;;;;;;;26.27;29.12;97467.41;5046135;28;20045;-66
2022/05/06 11:43:38;;;;;;;6.45;5.85;;;;;;;26.72;28.76;97503.84;5046054;28;20061;-65
2022/05/06 11:48:51;;;;;;;6.18;5.68;;;;;;;26.93;29.57;97507.91;5046459;28;20071;-65
2022/05/06 11:51:27;;;;;;;6.22;5.65;;;;;;;26.79;29.17;97509.28;5046117;28;20063;-66
2022/05/06 11:53:55;;;;;;;6.05;5.53;;;;;;;26.62;28.79;97502.19;5046197;28;20053;-64
2022/05/06 11:56:23;;;;;;;5.80;5.30;;;;;;;26.98;28.58;97508.09;5044308;28;20049;-65
2022/05/06 11:58:52;;;;;;;6.28;5.70;;;;;;;26.98;28.36;97501.63;5045826;28;20053;-66
2022/05/06 12:01:30;;;;;;;6.63;6.10;;;;;;;27.07;29.02;97502.44;5045459;28;20052;-66
2022/05/06 12:04:06;;;;;;;11.00;7.97;;;;;;;26.83;29.36;97481.47;5045785;28;20095;-65
2022/05/06 12:06:40;;;;;;;7.68;6.57;;;;;;;27.27;28.93;97494.31;5044650;28;20049;-67
2022/05/06 12:09:09;;;;;;;6.43;5.93;;;;;;;27.91;27.83;97486.69;5045906;28;20053;-66
2022/05/06 12:11:37;;;;;;;8.05;6.63;;;;;;;27.00;29.38;97474.28;5045611;28;20090;-66
2022/05/06 12:14:17;;;;;;;5.82;5.43;;;;;;;27.17;29.01;97487.00;5045605;28;20057;-66
2022/05/06 12:17:11;;;;;;;7.13;5.78;;;;;;;26.37;28.95;97454.06;5045676;28;20139;-66
2022/05/06 12:19:40;;;;;;;6.40;5.80;;;;;;;26.29;28.81;97432.84;5045714;28;20413;-66
2022/05/06 12:22:08;;;;;;;6.40;5.80;;;;;;;24.93;32.43;97482.69;5045399;28;20064;-66
2022/05/06 12:24:38;;;;;;;6.05;5.35;;;;;;;24.17;33.34;97475.34;5060758;28;20491;-67
2022/05/06 12:27:06;;;;;;;5.82;5.32;;;;;;;24.81;32.08;97469.34;5045265;28;20052;-65
2022/05/06 12:29:37;;;;;;;6.75;6.20;;;;;;;24.55;32.21;97439.38;5059312;28;20537;-66
2022/05/06 12:32:04;;;;;;;6.25;5.75;;;;;;;25.26;30.82;97469.81;5063839;28;20060;-65